Terminal Aerodrome Forecast
Issued by NWS Rapid City, SD

Home | Current Version | Previous Version | Graphics & Text | Print | Product List | Glossary On
Versions: 1 2 3 4 5 6 7 8 9 10 11 12 13 14 15 16 17 18 19
000
FTUS43 KUNR 171120
TAFRAP
TAF
KRAP 171120Z 1712/1812 34008KT P6SM OVC050
      TEMPO 1712/1713 -RAPL BKN020
     FM172100 36012KT P6SM VCSH OVC020
     FM180300 33010KT P6SM SCT025 BKN040=

USA.gov is the U.S. government's official web portal to all federal, state and local government web resources and services.